createdAt,value
2022-11-04T00:00:43.241Z,6.40
2022-11-04T00:03:10.191Z,6.15
2022-11-04T00:05:36.727Z,6.25
2022-11-04T00:08:03.102Z,5.75
2022-11-04T00:10:29.481Z,5.70
2022-11-04T00:12:55.826Z,5.47
2022-11-04T00:15:22.177Z,5.80
2022-11-04T00:17:48.548Z,6.03
2022-11-04T00:20:14.974Z,5.40
2022-11-04T00:22:42.531Z,5.88
2022-11-04T00:25:09.376Z,5.57
2022-11-04T00:27:35.715Z,5.88
2022-11-04T00:30:04.794Z,6.45
2022-11-04T00:32:32.517Z,5.68
2022-11-04T00:34:58.945Z,5.63
2022-11-04T00:37:26.467Z,4.93
2022-11-04T00:39:52.843Z,5.22
2022-11-04T00:42:19.234Z,5.47
2022-11-04T00:44:45.602Z,5.60
2022-11-04T00:47:12.023Z,5.18
2022-11-04T00:49:38.519Z,5.40
2022-11-04T00:52:04.977Z,5.38
2022-11-04T00:54:31.361Z,5.15
2022-11-04T00:56:57.709Z,5.72
2022-11-04T00:59:24.088Z,5.03
2022-11-04T01:01:50.690Z,5.28
2022-11-04T01:04:17.150Z,5.22
2022-11-04T01:06:43.572Z,4.95
2022-11-04T01:09:12.746Z,4.88
2022-11-04T01:11:39.568Z,4.32
2022-11-04T01:14:05.960Z,4.72
2022-11-04T01:16:32.376Z,4.78
2022-11-04T01:18:59.144Z,4.93
2022-11-04T01:21:25.860Z,5.00
2022-11-04T01:23:52.225Z,5.05
2022-11-04T01:26:21.509Z,4.95
2022-11-04T01:28:47.969Z,5.47
2022-11-04T01:31:19.724Z,4.88
2022-11-04T01:33:46.100Z,4.32
2022-11-04T01:36:12.463Z,5.00
2022-11-04T01:38:39.304Z,4.75
2022-11-04T01:41:06.536Z,3.83
2022-11-04T01:43:53.615Z,3.20
2022-11-04T01:46:43.869Z,3.25
2022-11-04T01:49:42.359Z,2.97
2022-11-04T01:52:15.004Z,2.88
2022-11-04T01:54:43.107Z,2.50
2022-11-04T01:57:16.686Z,2.38
2022-11-04T01:59:43.193Z,2.55
2022-11-04T02:02:09.664Z,1.92
2022-11-04T02:04:38.554Z,2.05
2022-11-04T02:07:07.986Z,2.40
2022-11-04T02:09:36.157Z,2.42
2022-11-04T02:12:02.976Z,2.08
2022-11-04T02:14:30.968Z,2.40
2022-11-04T02:17:19.015Z,2.25
2022-11-04T02:20:11.944Z,2.60
2022-11-04T02:22:47.268Z,2.70
2022-11-04T02:25:22.644Z,2.83
2022-11-04T02:28:07.306Z,3.10
2022-11-04T02:30:40.625Z,3.67
2022-11-04T02:33:30.213Z,4.03
2022-11-04T02:36:10.422Z,4.63
2022-11-04T02:38:44.493Z,4.85
2022-11-04T02:41:15.334Z,5.47
2022-11-04T02:44:02.630Z,5.55
2022-11-04T02:46:37.620Z,6.03
2022-11-04T02:49:20.320Z,5.95
2022-11-04T02:51:53.032Z,6.95
2022-11-04T02:54:29.059Z,5.85
2022-11-04T02:56:58.514Z,6.32
2022-11-04T02:59:42.932Z,6.57
2022-11-04T03:02:19.240Z,4.37
2022-11-04T03:04:49.000Z,7.97
2022-11-04T03:07:20.653Z,6.85
2022-11-04T03:09:52.891Z,6.90
2022-11-04T03:12:26.972Z,7.05
2022-11-04T03:15:00.678Z,7.30
2022-11-04T03:17:33.309Z,7.75
2022-11-04T03:20:00.284Z,8.50
2022-11-04T03:22:33.424Z,8.68
2022-11-04T03:25:02.178Z,9.00
2022-11-04T03:27:41.643Z,8.75
2022-11-04T03:30:18.619Z,9.50
2022-11-04T03:32:48.058Z,9.18
2022-11-04T03:35:16.791Z,9.23
2022-11-04T03:37:44.525Z,8.93
2022-11-04T03:40:12.418Z,8.48
2022-11-04T03:42:44.999Z,8.27
2022-11-04T03:45:12.670Z,8.27
2022-11-04T03:47:39.562Z,8.38
2022-11-04T03:50:26.250Z,8.00
2022-11-04T03:52:52.847Z,8.32
2022-11-04T03:55:19.389Z,7.88
2022-11-04T03:57:56.743Z,8.25
2022-11-04T04:00:24.131Z,8.35
2022-11-04T04:03:02.643Z,8.52
2022-11-04T04:05:51.078Z,9.25
2022-11-04T04:08:34.406Z,9.68
2022-11-04T04:11:36.195Z,9.65
2022-11-04T04:14:08.459Z,9.50
2022-11-04T04:16:43.603Z,10.93
2022-11-04T04:19:14.151Z,9.70
2022-11-04T04:21:56.644Z,10.32
2022-11-04T04:24:28.139Z,10.05
2022-11-04T04:26:55.881Z,10.07
2022-11-04T04:29:25.139Z,10.40
2022-11-04T04:31:54.453Z,10.07
2022-11-04T04:34:25.499Z,12.13
2022-11-04T04:37:00.037Z,10.23
2022-11-04T04:39:34.578Z,10.38
2022-11-04T04:42:01.526Z,10.87
2022-11-04T04:44:29.018Z,10.88
2022-11-04T04:46:57.957Z,10.65
2022-11-04T04:49:24.309Z,10.00
2022-11-04T04:51:50.742Z,10.82
2022-11-04T04:54:17.106Z,9.55
2022-11-04T04:56:43.472Z,10.52
2022-11-04T04:59:09.836Z,10.23
2022-11-04T05:01:36.254Z,10.35
2022-11-04T05:04:02.732Z,9.73
2022-11-04T05:06:29.112Z,10.40
2022-11-04T05:08:55.482Z,9.82
2022-11-04T05:11:26.071Z,10.27
2022-11-04T05:13:53.675Z,9.57
2022-11-04T05:16:20.059Z,10.75
2022-11-04T05:18:46.414Z,10.43
2022-11-04T05:21:15.250Z,10.52
2022-11-04T05:23:41.626Z,10.10
2022-11-04T05:26:08.122Z,9.82
2022-11-04T05:28:34.602Z,9.13
2022-11-04T05:31:05.909Z,8.30
2022-11-04T05:33:32.818Z,7.72
2022-11-04T05:36:06.805Z,8.30
2022-11-04T05:38:33.380Z,7.53
2022-11-04T05:40:59.756Z,7.72
2022-11-04T05:43:26.124Z,7.50
2022-11-04T05:45:52.493Z,7.13
2022-11-04T05:48:18.916Z,7.10
2022-11-04T05:50:45.291Z,6.65
2022-11-04T05:53:12.183Z,6.32
2022-11-04T05:55:38.865Z,6.13
2022-11-04T05:58:05.560Z,6.30
2022-11-04T06:00:32.259Z,7.18
2022-11-04T06:02:58.718Z,6.90
2022-11-04T06:05:26.915Z,7.68
2022-11-04T06:07:54.124Z,6.88
2022-11-04T06:10:20.737Z,7.22
2022-11-04T06:12:47.281Z,7.38
2022-11-04T06:15:13.732Z,8.18
2022-11-04T06:17:40.132Z,7.97
2022-11-04T06:20:07.205Z,8.90
2022-11-04T06:22:33.603Z,8.57
2022-11-04T06:24:59.929Z,9.88
2022-11-04T06:27:26.469Z,9.70
2022-11-04T06:29:52.801Z,8.80
2022-11-04T06:32:19.650Z,9.98
2022-11-04T06:34:46.457Z,9.73
2022-11-04T06:37:12.903Z,9.30
2022-11-04T06:39:39.284Z,9.50
2022-11-04T06:42:06.084Z,10.23
2022-11-04T06:44:32.453Z,10.02
2022-11-04T06:46:58.822Z,9.60
2022-11-04T06:49:25.228Z,8.82
2022-11-04T06:51:51.605Z,9.45
2022-11-04T06:54:21.097Z,10.00
2022-11-04T06:56:47.555Z,9.00
2022-11-04T06:59:17.417Z,9.90
2022-11-04T07:01:44.326Z,10.52
2022-11-04T07:04:10.706Z,10.27
2022-11-04T07:06:39.694Z,10.68
2022-11-04T07:09:11.260Z,9.95
2022-11-04T07:11:37.588Z,9.63
2022-11-04T07:14:03.924Z,9.27
2022-11-04T07:16:30.258Z,9.15
2022-11-04T07:18:56.814Z,8.98
2022-11-04T07:21:23.627Z,9.02
2022-11-04T07:23:49.947Z,8.88
2022-11-04T07:26:16.247Z,9.32
2022-11-04T07:28:42.626Z,8.65
2022-11-04T07:31:11.282Z,8.77
2022-11-04T07:33:37.612Z,8.25
2022-11-04T07:36:09.087Z,8.68
2022-11-04T07:38:35.476Z,9.07
2022-11-04T07:41:01.851Z,9.27
2022-11-04T07:43:29.058Z,9.23
2022-11-04T07:46:09.725Z,9.25
2022-11-04T07:48:37.157Z,9.40
2022-11-04T07:51:05.796Z,9.63
2022-11-04T07:53:32.422Z,8.80
2022-11-04T07:55:58.773Z,8.93
2022-11-04T07:58:25.845Z,8.57
2022-11-04T08:00:58.804Z,8.30
2022-11-04T08:03:25.197Z,8.13
2022-11-04T08:05:59.182Z,8.13
2022-11-04T08:08:25.981Z,7.13
2022-11-04T08:11:17.462Z,6.80
2022-11-04T08:13:45.669Z,6.47
2022-11-04T08:16:15.697Z,6.20
2022-11-04T08:18:42.849Z,6.53
2022-11-04T08:21:09.792Z,6.15
2022-11-04T08:23:36.433Z,4.95
2022-11-04T08:26:08.200Z,5.50
2022-11-04T08:28:34.604Z,5.00
2022-11-04T08:31:07.084Z,4.20
2022-11-04T08:33:34.518Z,3.80
2022-11-04T08:36:08.742Z,4.82
2022-11-04T08:38:35.801Z,4.55
2022-11-04T08:41:03.607Z,3.72
2022-11-04T08:43:29.913Z,4.57
2022-11-04T08:45:56.382Z,4.13
2022-11-04T08:48:22.884Z,4.25
2022-11-04T08:50:54.989Z,4.28
2022-11-04T08:53:21.801Z,4.22
2022-11-04T08:55:48.524Z,5.13
2022-11-04T08:58:14.964Z,4.22
2022-11-04T09:00:41.480Z,3.83
2022-11-04T09:03:08.059Z,4.50
2022-11-04T09:05:37.591Z,4.32
2022-11-04T09:08:03.978Z,4.53
2022-11-04T09:10:30.290Z,4.00
2022-11-04T09:12:56.615Z,5.32
2022-11-04T09:15:22.946Z,4.70
2022-11-04T09:17:49.255Z,4.60
2022-11-04T09:20:15.670Z,7.80
2022-11-04T09:22:45.816Z,15.05
2022-11-04T09:25:12.500Z,12.07
2022-11-04T09:27:38.870Z,4.55
2022-11-04T09:30:05.754Z,5.38
2022-11-04T09:32:32.053Z,4.35
2022-11-04T09:34:58.382Z,4.88
2022-11-04T09:37:24.691Z,3.92
2022-11-04T09:39:53.880Z,4.40
2022-11-04T09:42:35.302Z,4.10
2022-11-04T09:45:24.741Z,3.35
2022-11-04T09:47:55.514Z,3.53
2022-11-04T09:50:29.210Z,4.00
2022-11-04T09:53:03.848Z,3.63
2022-11-04T09:55:41.273Z,3.95
2022-11-04T09:58:13.020Z,3.85
2022-11-04T10:00:41.377Z,3.20
2022-11-04T10:03:28.730Z,3.47
2022-11-04T10:06:16.932Z,4.25
2022-11-04T10:08:51.534Z,4.20
2022-11-04T10:11:26.950Z,3.65
2022-11-04T10:14:35.273Z,4.15
2022-11-04T10:17:25.431Z,4.30
2022-11-04T10:20:08.053Z,4.13
2022-11-04T10:22:39.626Z,4.30
2022-11-04T10:25:14.130Z,3.65
2022-11-04T10:27:45.044Z,4.25
2022-11-04T10:30:22.025Z,4.43
2022-11-04T10:32:57.472Z,4.38
2022-11-04T10:35:44.959Z,3.97
2022-11-04T10:38:34.806Z,4.07
2022-11-04T10:41:07.101Z,3.85
2022-11-04T10:43:39.981Z,3.97
2022-11-04T10:46:06.321Z,4.07
2022-11-04T10:48:40.077Z,4.47
2022-11-04T10:51:06.425Z,4.45
2022-11-04T10:53:33.942Z,4.95
2022-11-04T10:56:40.149Z,4.05
2022-11-04T10:59:20.216Z,4.60
2022-11-04T11:01:58.818Z,4.65
2022-11-04T11:04:30.251Z,4.10
2022-11-04T11:06:59.360Z,3.90
2022-11-04T11:09:31.798Z,3.72
2022-11-04T11:12:09.815Z,4.30
2022-11-04T11:14:44.344Z,4.25
2022-11-04T11:17:34.602Z,4.38
2022-11-04T11:20:22.124Z,4.13
2022-11-04T11:22:50.288Z,3.85
2022-11-04T11:25:41.741Z,3.40
2022-11-04T11:28:20.448Z,3.00
2022-11-04T11:30:46.688Z,3.58
2022-11-04T11:33:33.369Z,3.13
2022-11-04T11:36:21.860Z,4.20
2022-11-04T11:38:55.818Z,3.97
2022-11-04T11:41:25.258Z,4.60
2022-11-04T11:43:55.195Z,4.47
2022-11-04T11:46:27.733Z,5.15
2022-11-04T11:48:55.790Z,4.15
2022-11-04T11:51:32.687Z,4.20
2022-11-04T11:54:16.663Z,4.35
2022-11-04T11:57:12.777Z,4.03
2022-11-04T12:02:55.339Z,4.57
2022-11-04T12:12:14.022Z,3.50
2022-11-04T12:14:48.829Z,3.53
2022-11-04T12:17:21.588Z,3.30
2022-11-04T12:20:11.680Z,3.65
2022-11-04T12:22:49.365Z,3.50
2022-11-04T12:25:58.571Z,3.40
2022-11-04T12:28:58.447Z,3.40
2022-11-04T12:31:40.042Z,3.10
2022-11-04T12:34:33.881Z,3.97
2022-11-04T12:37:20.431Z,3.00
2022-11-04T12:40:12.519Z,3.40
2022-11-04T12:42:41.772Z,3.22
2022-11-04T12:45:23.926Z,3.00
2022-11-04T12:47:50.573Z,3.47
2022-11-04T12:50:32.989Z,3.47
2022-11-04T12:53:17.188Z,3.65
2022-11-04T12:56:02.233Z,3.67
2022-11-04T12:59:05.881Z,3.47
2022-11-04T13:01:58.160Z,3.13
2022-11-04T13:04:40.794Z,3.53
2022-11-04T13:07:15.526Z,2.45
2022-11-04T13:09:57.953Z,3.00
2022-11-04T13:12:29.831Z,3.00
2022-11-04T13:15:02.619Z,2.58
2022-11-04T13:17:33.304Z,3.05
2022-11-04T13:20:13.163Z,2.85
2022-11-04T13:22:42.417Z,2.30
2022-11-04T13:25:36.988Z,2.78
2022-11-04T13:28:03.980Z,2.75
2022-11-04T13:30:39.718Z,3.63
2022-11-04T13:33:26.267Z,2.60
2022-11-04T13:36:44.801Z,2.55
2022-11-04T13:39:38.869Z,2.03
2022-11-04T13:42:49.470Z,3.25
2022-11-04T13:45:18.445Z,3.65
2022-11-04T13:47:57.430Z,2.75
2022-11-04T13:50:36.342Z,2.70
2022-11-04T13:53:05.393Z,3.38
2022-11-04T13:55:32.922Z,2.22
2022-11-04T13:58:03.102Z,2.53
2022-11-04T14:00:31.160Z,2.67
2022-11-04T14:03:29.226Z,3.00
2022-11-04T14:06:07.588Z,2.47
2022-11-04T14:08:34.584Z,2.53
2022-11-04T14:11:05.693Z,2.30
2022-11-04T14:13:31.945Z,2.25
2022-11-04T14:16:03.030Z,2.33
2022-11-04T14:18:34.770Z,2.85
2022-11-04T14:21:11.892Z,2.50
2022-11-04T14:23:40.932Z,2.25
2022-11-04T14:26:14.001Z,2.58
2022-11-04T14:28:44.417Z,2.08
2022-11-04T14:31:17.360Z,2.67
2022-11-04T14:33:53.772Z,1.85
2022-11-04T14:36:20.256Z,2.00
2022-11-04T14:39:01.856Z,2.15
2022-11-04T14:41:28.151Z,2.35
2022-11-04T14:43:57.067Z,2.72
2022-11-04T14:46:28.339Z,2.60
2022-11-04T14:48:58.210Z,1.77
2022-11-04T14:51:28.305Z,2.70
2022-11-04T14:54:25.638Z,2.80
2022-11-04T14:56:52.715Z,2.25
2022-11-04T14:59:27.955Z,2.08
2022-11-04T15:01:55.371Z,2.35
2022-11-04T15:04:27.678Z,2.13
2022-11-04T15:07:02.860Z,2.78
2022-11-04T15:09:41.108Z,2.72
2022-11-04T15:12:10.511Z,2.47
2022-11-04T15:14:37.391Z,2.25
2022-11-04T15:17:04.088Z,2.50
2022-11-04T15:19:33.789Z,2.50
2022-11-04T15:22:05.078Z,2.70
2022-11-04T15:24:31.709Z,2.58
2022-11-04T15:27:02.949Z,2.20
2022-11-04T15:29:29.296Z,2.88
2022-11-04T15:31:59.334Z,2.45
2022-11-04T15:34:27.857Z,3.30
2022-11-04T15:36:57.467Z,2.17
2022-11-04T15:39:31.709Z,2.22
2022-11-04T15:42:02.318Z,2.38
2022-11-04T15:44:33.829Z,2.10
2022-11-04T15:47:20.034Z,2.40
2022-11-04T15:49:48.249Z,2.22
2022-11-04T15:52:17.665Z,2.20
2022-11-04T15:54:46.991Z,2.25
2022-11-04T15:57:19.389Z,2.53
2022-11-04T15:59:50.682Z,2.60
2022-11-04T16:02:32.363Z,2.05
2022-11-04T16:05:06.186Z,2.25
2022-11-04T16:07:36.904Z,1.83
2022-11-04T16:10:08.547Z,1.92
2022-11-04T16:12:36.306Z,2.00
2022-11-04T16:15:03.186Z,2.45
2022-11-04T16:17:31.386Z,2.10
2022-11-04T16:20:05.522Z,2.42
2022-11-04T16:22:35.388Z,2.58
2022-11-04T16:25:04.891Z,2.22
2022-11-04T16:27:35.163Z,2.00
2022-11-04T16:30:20.002Z,3.70
2022-11-04T16:32:51.624Z,3.25
2022-11-04T16:35:28.593Z,2.72
2022-11-04T16:37:56.058Z,2.90
2022-11-04T16:40:24.013Z,2.55
2022-11-04T16:42:51.028Z,2.60
2022-11-04T16:45:25.466Z,2.75
2022-11-04T16:47:51.867Z,3.05
2022-11-04T16:50:18.757Z,3.15
2022-11-04T16:52:45.529Z,2.92
2022-11-04T16:55:13.523Z,3.80
2022-11-04T16:57:40.258Z,3.60
2022-11-04T17:00:07.695Z,3.70
2022-11-04T17:02:35.996Z,3.58
2022-11-04T17:05:02.377Z,4.15
2022-11-04T17:07:51.149Z,4.90
2022-11-04T17:10:34.221Z,5.18
2022-11-04T17:13:00.542Z,18.85
2022-11-04T17:15:26.855Z,31.20
2022-11-04T17:17:53.161Z,96.30
2022-11-04T17:20:19.537Z,122.97
2022-11-04T17:22:46.773Z,52.05
2022-11-04T17:25:23.578Z,18.20
2022-11-04T17:27:50.172Z,7.10
2022-11-04T17:30:17.373Z,7.20
2022-11-04T17:32:45.180Z,16.27
2022-11-04T17:35:12.356Z,9.32
2022-11-04T17:37:38.861Z,10.23
2022-11-04T17:40:07.315Z,8.43
2022-11-04T17:42:33.737Z,7.70
2022-11-04T17:45:00.079Z,8.00
2022-11-04T17:47:26.458Z,7.68
2022-11-04T17:49:52.769Z,6.90
2022-11-04T17:52:19.084Z,6.47
2022-11-04T17:54:45.424Z,8.02
2022-11-04T17:57:11.753Z,11.45
2022-11-04T17:59:38.073Z,8.95
2022-11-04T18:02:04.552Z,8.85
2022-11-04T18:04:30.909Z,16.30
2022-11-04T18:07:02.404Z,55.80
2022-11-04T18:09:30.081Z,62.72
2022-11-04T18:11:56.591Z,25.60
2022-11-04T18:14:23.180Z,19.05
2022-11-04T18:16:50.163Z,15.98
2022-11-04T18:19:19.279Z,13.18
2022-11-04T18:21:46.220Z,12.55
2022-11-04T18:24:13.370Z,11.30
2022-11-04T18:26:40.644Z,11.43
2022-11-04T18:29:07.132Z,10.13
2022-11-04T18:31:36.375Z,10.68
2022-11-04T18:34:05.975Z,9.77
2022-11-04T18:36:33.400Z,9.13
2022-11-04T18:39:00.246Z,9.95
2022-11-04T18:41:26.820Z,9.25
2022-11-04T18:43:53.177Z,9.50
2022-11-04T18:46:19.874Z,9.98
2022-11-04T18:48:52.570Z,8.82
2022-11-04T18:51:21.376Z,9.43
2022-11-04T18:53:48.637Z,8.63
2022-11-04T18:56:17.563Z,8.65
2022-11-04T18:58:44.160Z,10.68
2022-11-04T19:01:16.776Z,10.45
2022-11-04T19:03:43.195Z,10.50
2022-11-04T19:06:12.462Z,11.30
2022-11-04T19:08:45.336Z,11.75
2022-11-04T19:11:18.944Z,12.10
2022-11-04T19:13:50.525Z,14.57
2022-11-04T19:16:16.868Z,13.75
2022-11-04T19:18:43.240Z,12.93
2022-11-04T19:21:12.369Z,18.17
2022-11-04T19:23:39.100Z,18.02
2022-11-04T19:26:15.593Z,15.40
2022-11-04T19:28:48.576Z,15.25
2022-11-04T19:31:21.144Z,16.75
2022-11-04T19:33:48.036Z,17.25
2022-11-04T19:36:16.773Z,15.48
2022-11-04T19:38:43.153Z,13.52
2022-11-04T19:41:15.353Z,13.52
2022-11-04T19:43:41.762Z,13.05
2022-11-04T19:46:08.082Z,14.77
2022-11-04T19:48:34.400Z,12.85
2022-11-04T19:51:00.821Z,13.38
2022-11-04T19:53:27.202Z,13.20
2022-11-04T19:55:55.130Z,14.23
2022-11-04T19:58:21.545Z,14.50
2022-11-04T20:00:47.968Z,15.68
2022-11-04T20:03:14.776Z,14.80
2022-11-04T20:05:42.753Z,14.25
2022-11-04T20:08:10.039Z,15.02
2022-11-04T20:10:42.066Z,15.15
2022-11-04T20:13:17.402Z,15.30
2022-11-04T20:15:43.812Z,15.77
2022-11-04T20:18:10.451Z,15.18
2022-11-04T20:20:37.041Z,16.38
2022-11-04T20:23:03.385Z,17.23
2022-11-04T20:25:29.737Z,15.93
2022-11-04T20:27:56.151Z,14.38
2022-11-04T20:30:22.501Z,14.57
2022-11-04T20:32:48.861Z,13.93
2022-11-04T20:35:15.273Z,14.18
2022-11-04T20:37:41.688Z,14.90
2022-11-04T20:40:08.719Z,14.68
2022-11-04T20:42:35.214Z,13.98
2022-11-04T20:45:01.633Z,13.55
2022-11-04T20:47:27.943Z,16.15
2022-11-04T20:49:54.371Z,15.55
2022-11-04T20:52:20.735Z,13.20
2022-11-04T20:54:47.061Z,12.73
2022-11-04T20:57:13.382Z,12.43
2022-11-04T20:59:39.775Z,12.35
2022-11-04T21:02:06.183Z,13.02
2022-11-04T21:04:36.170Z,11.98
2022-11-04T21:07:02.866Z,12.23
2022-11-04T21:09:29.202Z,12.10
2022-11-04T21:11:55.494Z,11.88
2022-11-04T21:14:22.004Z,12.60
2022-11-04T21:16:48.336Z,12.48
2022-11-04T21:19:14.896Z,12.15
2022-11-04T21:21:42.830Z,12.68
2022-11-04T21:24:12.465Z,12.20
2022-11-04T21:26:38.852Z,14.15
2022-11-04T21:29:07.442Z,13.77
2022-11-04T21:31:35.608Z,15.02
2022-11-04T21:34:02.348Z,18.20
2022-11-04T21:36:29.097Z,16.00
2022-11-04T21:38:55.942Z,16.52
2022-11-04T21:41:24.945Z,16.17
2022-11-04T21:43:59.157Z,16.88
2022-11-04T21:46:28.302Z,16.17
2022-11-04T21:48:55.320Z,15.75
2022-11-04T21:51:23.892Z,14.80
2022-11-04T21:53:50.398Z,16.30
2022-11-04T21:56:19.967Z,16.73
2022-11-04T21:58:46.935Z,15.10
2022-11-04T22:01:16.950Z,15.30
2022-11-04T22:03:43.534Z,17.02
2022-11-04T22:06:12.427Z,16.15
2022-11-04T22:08:42.514Z,16.50
2022-11-04T22:11:14.343Z,16.13
2022-11-04T22:13:41.066Z,15.52
2022-11-04T22:16:11.352Z,15.73
2022-11-04T22:18:37.708Z,15.48
2022-11-04T22:21:06.811Z,15.50
2022-11-04T22:23:36.587Z,16.58
2022-11-04T22:26:06.054Z,14.93
2022-11-04T22:28:32.566Z,15.63
2022-11-04T22:31:10.973Z,15.45
2022-11-04T22:33:37.478Z,15.35
2022-11-04T22:36:05.529Z,16.85
2022-11-04T22:38:33.357Z,15.43
2022-11-04T22:41:00.987Z,15.23
2022-11-04T22:43:27.327Z,16.15
2022-11-04T22:45:55.528Z,18.45
2022-11-04T22:48:22.535Z,17.25
2022-11-04T22:50:59.144Z,18.02
2022-11-04T22:53:25.895Z,18.92
2022-11-04T22:55:52.801Z,17.50
2022-11-04T22:58:19.596Z,17.10
2022-11-04T23:00:46.535Z,17.20
2022-11-04T23:03:13.176Z,16.73
2022-11-04T23:05:39.687Z,20.13
2022-11-04T23:08:06.055Z,18.10
2022-11-04T23:10:32.825Z,18.40
2022-11-04T23:12:59.136Z,18.77
2022-11-04T23:15:25.469Z,18.85
2022-11-04T23:17:52.039Z,18.27
2022-11-04T23:20:18.353Z,18.55
2022-11-04T23:22:44.676Z,19.63
2022-11-04T23:25:11.695Z,18.52
2022-11-04T23:27:44.717Z,19.42
2022-11-04T23:30:12.884Z,17.63
2022-11-04T23:32:39.197Z,18.67
2022-11-04T23:35:05.929Z,19.45
2022-11-04T23:37:32.238Z,19.23
2022-11-04T23:39:58.521Z,19.42
2022-11-04T23:42:24.857Z,18.45
2022-11-04T23:44:55.262Z,18.65
2022-11-04T23:47:21.674Z,19.40
2022-11-04T23:49:47.970Z,18.67
2022-11-04T23:52:14.285Z,18.90
2022-11-04T23:54:40.616Z,18.13
2022-11-04T23:57:13.588Z,17.58
2022-11-04T23:59:39.901Z,19.55
